sensor_id;sensor_type;location;lat;lon;timestamp;temperature;humidity
73576;DHT22;61859;49.204;8.140;2023-12-14T00:01:58;7.60;99.90
73576;DHT22;61859;49.204;8.140;2023-12-14T00:04:23;7.60;99.90
73576;DHT22;61859;49.204;8.140;2023-12-14T00:06:49;7.70;99.90
73576;DHT22;61859;49.204;8.140;2023-12-14T00:09:14;7.70;99.90
73576;DHT22;61859;49.204;8.140;2023-12-14T00:11:40;7.70;99.90
73576;DHT22;61859;49.204;8.140;2023-12-14T00:14:05;7.50;99.90
73576;DHT22;61859;49.204;8.140;2023-12-14T00:16:31;7.70;99.90
73576;DHT22;61859;49.204;8.140;2023-12-14T00:18:57;7.70;99.90
73576;DHT22;61859;49.204;8.140;2023-12-14T00:21:22;7.70;99.90
73576;DHT22;61859;49.204;8.140;2023-12-14T00:23:48;7.70;99.90
73576;DHT22;61859;49.204;8.140;2023-12-14T00:26:13;7.60;99.90
73576;DHT22;61859;49.204;8.140;2023-12-14T00:28:39;7.70;99.90
73576;DHT22;61859;49.204;8.140;2023-12-14T00:31:05;7.70;99.90
73576;DHT22;61859;49.204;8.140;2023-12-14T00:33:30;7.70;99.90
73576;DHT22;61859;49.204;8.140;2023-12-14T00:35:56;7.70;99.90
73576;DHT22;61859;49.204;8.140;2023-12-14T00:38:21;7.70;99.90
73576;DHT22;61859;49.204;8.140;2023-12-14T00:40:47;7.80;99.90
73576;DHT22;61859;49.204;8.140;2023-12-14T00:43:12;7.80;99.90
73576;DHT22;61859;49.204;8.140;2023-12-14T00:45:38;7.80;99.90
73576;DHT22;61859;49.204;8.140;2023-12-14T00:48:04;7.80;99.90
73576;DHT22;61859;49.204;8.140;2023-12-14T00:50:29;7.70;99.90
73576;DHT22;61859;49.204;8.140;2023-12-14T00:52:55;7.70;99.90
73576;DHT22;61859;49.204;8.140;2023-12-14T00:55:20;7.70;99.90
73576;DHT22;61859;49.204;8.140;2023-12-14T00:57:46;7.50;99.90
73576;DHT22;61859;49.204;8.140;2023-12-14T01:00:12;7.70;99.90
73576;DHT22;61859;49.204;8.140;2023-12-14T01:02:38;7.60;99.90
73576;DHT22;61859;49.204;8.140;2023-12-14T01:05:04;7.80;99.90
73576;DHT22;61859;49.204;8.140;2023-12-14T01:07:29;7.70;99.90
73576;DHT22;61859;49.204;8.140;2023-12-14T01:09:55;7.70;99.90
73576;DHT22;61859;49.204;8.140;2023-12-14T01:12:21;7.60;99.90
73576;DHT22;61859;49.204;8.140;2023-12-14T01:14:46;7.80;99.90
73576;DHT22;61859;49.204;8.140;2023-12-14T01:17:12;7.70;99.90
73576;DHT22;61859;49.204;8.140;2023-12-14T01:19:40;7.70;99.90
73576;DHT22;61859;49.204;8.140;2023-12-14T01:22:06;7.80;99.90
73576;DHT22;61859;49.204;8.140;2023-12-14T01:24:32;7.70;99.90
73576;DHT22;61859;49.204;8.140;2023-12-14T01:26:57;7.60;99.90
73576;DHT22;61859;49.204;8.140;2023-12-14T01:29:23;7.70;99.90
73576;DHT22;61859;49.204;8.140;2023-12-14T01:31:48;7.60;99.90
73576;DHT22;61859;49.204;8.140;2023-12-14T01:34:14;7.50;99.90
73576;DHT22;61859;49.204;8.140;2023-12-14T01:36:41;7.60;99.90
73576;DHT22;61859;49.204;8.140;2023-12-14T01:39:07;7.50;99.90
73576;DHT22;61859;49.204;8.140;2023-12-14T01:41:32;7.50;99.90
73576;DHT22;61859;49.204;8.140;2023-12-14T01:43:58;7.30;99.90
73576;DHT22;61859;49.204;8.140;2023-12-14T01:46:23;7.40;99.90
73576;DHT22;61859;49.204;8.140;2023-12-14T01:48:49;7.30;99.90
73576;DHT22;61859;49.204;8.140;2023-12-14T01:51:15;7.50;99.90
73576;DHT22;61859;49.204;8.140;2023-12-14T01:53:40;7.50;99.90
73576;DHT22;61859;49.204;8.140;2023-12-14T01:56:07;7.40;99.90
73576;DHT22;61859;49.204;8.140;2023-12-14T01:58:32;7.40;99.90
73576;DHT22;61859;49.204;8.140;2023-12-14T02:03:26;7.50;99.90
73576;DHT22;61859;49.204;8.140;2023-12-14T02:05:52;7.50;99.90
73576;DHT22;61859;49.204;8.140;2023-12-14T02:08:17;7.30;99.90
73576;DHT22;61859;49.204;8.140;2023-12-14T02:10:43;7.30;99.90
73576;DHT22;61859;49.204;8.140;2023-12-14T02:13:08;7.30;99.90
73576;DHT22;61859;49.204;8.140;2023-12-14T02:15:34;7.30;99.90
73576;DHT22;61859;49.204;8.140;2023-12-14T02:18:00;7.40;99.90
73576;DHT22;61859;49.204;8.140;2023-12-14T02:20:25;7.30;99.90
73576;DHT22;61859;49.204;8.140;2023-12-14T02:22:52;7.20;99.90
73576;DHT22;61859;49.204;8.140;2023-12-14T02:25:18;7.20;99.90
73576;DHT22;61859;49.204;8.140;2023-12-14T02:27:44;7.20;99.90
73576;DHT22;61859;49.204;8.140;2023-12-14T02:30:11;7.30;99.90
73576;DHT22;61859;49.204;8.140;2023-12-14T02:32:38;7.30;99.90
73576;DHT22;61859;49.204;8.140;2023-12-14T02:35:04;7.20;99.90
73576;DHT22;61859;49.204;8.140;2023-12-14T02:37:30;7.20;99.90
73576;DHT22;61859;49.204;8.140;2023-12-14T02:39:56;7.20;99.90
73576;DHT22;61859;49.204;8.140;2023-12-14T02:42:21;7.20;99.90
73576;DHT22;61859;49.204;8.140;2023-12-14T02:44:47;7.30;99.90
73576;DHT22;61859;49.204;8.140;2023-12-14T02:47:12;7.30;99.90
73576;DHT22;61859;49.204;8.140;2023-12-14T02:49:38;7.20;99.90
73576;DHT22;61859;49.204;8.140;2023-12-14T02:52:04;7.40;99.90
73576;DHT22;61859;49.204;8.140;2023-12-14T02:54:29;7.30;99.90
73576;DHT22;61859;49.204;8.140;2023-12-14T02:56:55;7.30;99.90
73576;DHT22;61859;49.204;8.140;2023-12-14T02:59:20;7.30;99.90
73576;DHT22;61859;49.204;8.140;2023-12-14T03:01:46;7.40;99.90
73576;DHT22;61859;49.204;8.140;2023-12-14T03:04:12;7.40;99.90
73576;DHT22;61859;49.204;8.140;2023-12-14T03:06:37;7.40;99.90
73576;DHT22;61859;49.204;8.140;2023-12-14T03:09:03;7.30;99.90
73576;DHT22;61859;49.204;8.140;2023-12-14T03:11:28;7.40;99.90
73576;DHT22;61859;49.204;8.140;2023-12-14T03:13:54;7.30;99.90
73576;DHT22;61859;49.204;8.140;2023-12-14T03:16:20;7.40;99.90
73576;DHT22;61859;49.204;8.140;2023-12-14T03:18:46;7.50;99.90
73576;DHT22;61859;49.204;8.140;2023-12-14T03:21:12;7.40;99.90
73576;DHT22;61859;49.204;8.140;2023-12-14T03:23:37;7.50;99.90
73576;DHT22;61859;49.204;8.140;2023-12-14T03:26:03;7.40;99.90
73576;DHT22;61859;49.204;8.140;2023-12-14T03:28:28;7.40;99.90
73576;DHT22;61859;49.204;8.140;2023-12-14T03:30:54;7.30;99.90
73576;DHT22;61859;49.204;8.140;2023-12-14T03:33:19;7.50;99.90
73576;DHT22;61859;49.204;8.140;2023-12-14T03:35:45;7.50;99.90
73576;DHT22;61859;49.204;8.140;2023-12-14T03:38:13;7.50;99.90
73576;DHT22;61859;49.204;8.140;2023-12-14T03:40:39;7.50;99.90
73576;DHT22;61859;49.204;8.140;2023-12-14T03:43:04;7.50;99.90
73576;DHT22;61859;49.204;8.140;2023-12-14T03:45:30;7.50;99.90
73576;DHT22;61859;49.204;8.140;2023-12-14T03:47:56;7.40;99.90
73576;DHT22;61859;49.204;8.140;2023-12-14T03:50:22;7.30;99.90
73576;DHT22;61859;49.204;8.140;2023-12-14T03:52:47;7.60;99.90
73576;DHT22;61859;49.204;8.140;2023-12-14T03:55:13;7.50;99.90
73576;DHT22;61859;49.204;8.140;2023-12-14T03:57:40;7.50;99.90
73576;DHT22;61859;49.204;8.140;2023-12-14T04:00:10;7.60;99.90
73576;DHT22;61859;49.204;8.140;2023-12-14T04:02:36;7.40;99.90
73576;DHT22;61859;49.204;8.140;2023-12-14T04:05:01;7.60;99.90
73576;DHT22;61859;49.204;8.140;2023-12-14T04:07:27;7.40;99.90
73576;DHT22;61859;49.204;8.140;2023-12-14T04:09:53;7.40;99.90
73576;DHT22;61859;49.204;8.140;2023-12-14T04:12:18;7.50;99.90
73576;DHT22;61859;49.204;8.140;2023-12-14T04:14:44;7.40;99.90
73576;DHT22;61859;49.204;8.140;2023-12-14T04:17:10;7.60;99.90
73576;DHT22;61859;49.204;8.140;2023-12-14T04:19:41;7.40;99.90
73576;DHT22;61859;49.204;8.140;2023-12-14T04:22:07;7.40;99.90
73576;DHT22;61859;49.204;8.140;2023-12-14T04:24:33;7.50;99.90
73576;DHT22;61859;49.204;8.140;2023-12-14T04:26:59;7.50;99.90
73576;DHT22;61859;49.204;8.140;2023-12-14T04:29:24;7.50;99.90
73576;DHT22;61859;49.204;8.140;2023-12-14T04:31:50;7.60;99.90
73576;DHT22;61859;49.204;8.140;2023-12-14T04:34:15;7.50;99.90
73576;DHT22;61859;49.204;8.140;2023-12-14T04:36:45;7.60;99.90
73576;DHT22;61859;49.204;8.140;2023-12-14T04:39:11;7.70;99.90
73576;DHT22;61859;49.204;8.140;2023-12-14T04:41:36;7.60;99.90
73576;DHT22;61859;49.204;8.140;2023-12-14T04:44:02;7.60;99.90
73576;DHT22;61859;49.204;8.140;2023-12-14T04:46:28;7.60;99.90
73576;DHT22;61859;49.204;8.140;2023-12-14T04:48:54;7.50;99.90
73576;DHT22;61859;49.204;8.140;2023-12-14T04:51:20;7.50;99.90
73576;DHT22;61859;49.204;8.140;2023-12-14T04:53:45;7.60;99.90
73576;DHT22;61859;49.204;8.140;2023-12-14T04:56:11;7.50;99.90
73576;DHT22;61859;49.204;8.140;2023-12-14T04:58:39;7.60;99.90
73576;DHT22;61859;49.204;8.140;2023-12-14T05:01:05;7.60;99.90
73576;DHT22;61859;49.204;8.140;2023-12-14T05:03:31;7.40;99.90
73576;DHT22;61859;49.204;8.140;2023-12-14T05:05:56;7.50;99.90
73576;DHT22;61859;49.204;8.140;2023-12-14T05:08:22;7.50;99.90
73576;DHT22;61859;49.204;8.140;2023-12-14T05:10:47;7.40;99.90
73576;DHT22;61859;49.204;8.140;2023-12-14T05:13:13;7.30;99.90
73576;DHT22;61859;49.204;8.140;2023-12-14T05:15:38;7.30;99.90
73576;DHT22;61859;49.204;8.140;2023-12-14T05:18:04;7.20;99.90
73576;DHT22;61859;49.204;8.140;2023-12-14T05:20:29;7.20;99.90
73576;DHT22;61859;49.204;8.140;2023-12-14T05:22:55;7.20;99.90
73576;DHT22;61859;49.204;8.140;2023-12-14T05:25:21;7.10;99.90
73576;DHT22;61859;49.204;8.140;2023-12-14T05:27:46;7.10;99.90
73576;DHT22;61859;49.204;8.140;2023-12-14T05:30:12;7.00;99.90
73576;DHT22;61859;49.204;8.140;2023-12-14T05:32:38;7.20;99.90
73576;DHT22;61859;49.204;8.140;2023-12-14T05:35:03;7.40;99.90
73576;DHT22;61859;49.204;8.140;2023-12-14T05:37:29;7.30;99.90
73576;DHT22;61859;49.204;8.140;2023-12-14T05:39:55;7.20;99.90
73576;DHT22;61859;49.204;8.140;2023-12-14T05:42:20;7.20;99.90
73576;DHT22;61859;49.204;8.140;2023-12-14T05:44:47;7.10;99.90
73576;DHT22;61859;49.204;8.140;2023-12-14T05:47:12;7.10;99.90
73576;DHT22;61859;49.204;8.140;2023-12-14T05:49:44;7.00;99.90
73576;DHT22;61859;49.204;8.140;2023-12-14T05:52:10;7.00;99.90
73576;DHT22;61859;49.204;8.140;2023-12-14T05:54:36;6.90;99.90
73576;DHT22;61859;49.204;8.140;2023-12-14T05:57:03;6.90;99.90
73576;DHT22;61859;49.204;8.140;2023-12-14T05:59:28;6.80;99.90
73576;DHT22;61859;49.204;8.140;2023-12-14T06:02:00;6.80;99.90
73576;DHT22;61859;49.204;8.140;2023-12-14T06:04:27;6.70;99.90
73576;DHT22;61859;49.204;8.140;2023-12-14T06:06:53;6.80;99.90
73576;DHT22;61859;49.204;8.140;2023-12-14T06:09:19;6.80;99.90
73576;DHT22;61859;49.204;8.140;2023-12-14T06:11:47;6.70;99.90
73576;DHT22;61859;49.204;8.140;2023-12-14T06:14:13;6.70;99.90
73576;DHT22;61859;49.204;8.140;2023-12-14T06:16:39;6.80;99.90
73576;DHT22;61859;49.204;8.140;2023-12-14T06:19:04;6.80;99.90
73576;DHT22;61859;49.204;8.140;2023-12-14T06:21:30;6.70;99.90
73576;DHT22;61859;49.204;8.140;2023-12-14T06:23:56;6.90;99.90
73576;DHT22;61859;49.204;8.140;2023-12-14T06:26:22;6.80;99.90
73576;DHT22;61859;49.204;8.140;2023-12-14T06:28:48;6.70;99.90
73576;DHT22;61859;49.204;8.140;2023-12-14T06:31:14;6.80;99.90
73576;DHT22;61859;49.204;8.140;2023-12-14T06:33:40;6.70;99.90
73576;DHT22;61859;49.204;8.140;2023-12-14T06:36:10;6.60;99.90
73576;DHT22;61859;49.204;8.140;2023-12-14T06:38:39;6.50;99.90
73576;DHT22;61859;49.204;8.140;2023-12-14T06:41:05;6.50;99.90
73576;DHT22;61859;49.204;8.140;2023-12-14T06:43:32;6.40;99.90
73576;DHT22;61859;49.204;8.140;2023-12-14T06:45:57;6.20;99.90
73576;DHT22;61859;49.204;8.140;2023-12-14T06:48:23;6.20;99.90
73576;DHT22;61859;49.204;8.140;2023-12-14T06:50:48;6.10;99.90
73576;DHT22;61859;49.204;8.140;2023-12-14T06:53:14;6.00;99.90
73576;DHT22;61859;49.204;8.140;2023-12-14T06:55:41;6.10;99.90
73576;DHT22;61859;49.204;8.140;2023-12-14T06:58:07;6.00;99.90
73576;DHT22;61859;49.204;8.140;2023-12-14T07:00:37;6.10;99.90
73576;DHT22;61859;49.204;8.140;2023-12-14T07:03:02;6.10;99.90
73576;DHT22;61859;49.204;8.140;2023-12-14T07:05:28;6.30;99.90
73576;DHT22;61859;49.204;8.140;2023-12-14T07:07:54;6.40;99.90
73576;DHT22;61859;49.204;8.140;2023-12-14T07:10:20;6.50;99.90
73576;DHT22;61859;49.204;8.140;2023-12-14T07:12:45;6.60;99.90
73576;DHT22;61859;49.204;8.140;2023-12-14T07:15:12;6.20;99.90
73576;DHT22;61859;49.204;8.140;2023-12-14T07:17:37;6.40;99.90
73576;DHT22;61859;49.204;8.140;2023-12-14T07:20:03;6.40;99.90
73576;DHT22;61859;49.204;8.140;2023-12-14T07:22:29;6.50;99.90
73576;DHT22;61859;49.204;8.140;2023-12-14T07:24:54;6.50;99.90
73576;DHT22;61859;49.204;8.140;2023-12-14T07:27:20;6.50;99.90
73576;DHT22;61859;49.204;8.140;2023-12-14T07:29:45;6.50;99.90
73576;DHT22;61859;49.204;8.140;2023-12-14T07:32:11;6.50;99.90
73576;DHT22;61859;49.204;8.140;2023-12-14T07:34:37;6.60;99.90
73576;DHT22;61859;49.204;8.140;2023-12-14T07:37:03;6.70;99.90
73576;DHT22;61859;49.204;8.140;2023-12-14T07:39:28;6.80;99.90
73576;DHT22;61859;49.204;8.140;2023-12-14T07:41:54;6.90;99.90
73576;DHT22;61859;49.204;8.140;2023-12-14T07:44:19;7.00;99.90
73576;DHT22;61859;49.204;8.140;2023-12-14T07:46:45;7.00;99.90
73576;DHT22;61859;49.204;8.140;2023-12-14T07:49:11;7.00;99.90
73576;DHT22;61859;49.204;8.140;2023-12-14T07:51:36;7.10;99.90
73576;DHT22;61859;49.204;8.140;2023-12-14T07:54:02;7.10;99.90
73576;DHT22;61859;49.204;8.140;2023-12-14T07:56:29;7.10;99.90
73576;DHT22;61859;49.204;8.140;2023-12-14T07:58:55;7.30;99.90
73576;DHT22;61859;49.204;8.140;2023-12-14T08:01:20;7.40;99.90
73576;DHT22;61859;49.204;8.140;2023-12-14T08:03:46;7.40;99.90
73576;DHT22;61859;49.204;8.140;2023-12-14T08:06:12;7.30;99.90
73576;DHT22;61859;49.204;8.140;2023-12-14T08:08:37;7.40;99.90
73576;DHT22;61859;49.204;8.140;2023-12-14T08:11:04;7.50;99.90
73576;DHT22;61859;49.204;8.140;2023-12-14T08:13:30;7.50;99.90
73576;DHT22;61859;49.204;8.140;2023-12-14T08:15:55;7.50;99.90
73576;DHT22;61859;49.204;8.140;2023-12-14T08:18:21;7.40;99.90
73576;DHT22;61859;49.204;8.140;2023-12-14T08:20:46;7.60;99.90
73576;DHT22;61859;49.204;8.140;2023-12-14T08:23:12;7.60;99.90
73576;DHT22;61859;49.204;8.140;2023-12-14T08:25:37;7.80;99.90
73576;DHT22;61859;49.204;8.140;2023-12-14T08:28:03;7.80;99.90
73576;DHT22;61859;49.204;8.140;2023-12-14T08:30:29;8.00;99.90
73576;DHT22;61859;49.204;8.140;2023-12-14T08:32:54;8.00;99.90
73576;DHT22;61859;49.204;8.140;2023-12-14T08:35:20;8.10;99.90
73576;DHT22;61859;49.204;8.140;2023-12-14T08:37:45;8.20;99.90
73576;DHT22;61859;49.204;8.140;2023-12-14T08:40:12;8.30;99.90
73576;DHT22;61859;49.204;8.140;2023-12-14T08:42:37;8.40;99.90
73576;DHT22;61859;49.204;8.140;2023-12-14T08:45:03;8.50;99.90
73576;DHT22;61859;49.204;8.140;2023-12-14T08:47:28;8.30;99.90
73576;DHT22;61859;49.204;8.140;2023-12-14T08:49:54;8.40;99.90
73576;DHT22;61859;49.204;8.140;2023-12-14T08:52:19;8.50;99.90
73576;DHT22;61859;49.204;8.140;2023-12-14T08:54:45;8.40;99.90
73576;DHT22;61859;49.204;8.140;2023-12-14T08:57:11;8.50;99.90
73576;DHT22;61859;49.204;8.140;2023-12-14T08:59:36;8.50;99.90
73576;DHT22;61859;49.204;8.140;2023-12-14T09:02:02;8.50;99.90
73576;DHT22;61859;49.204;8.140;2023-12-14T09:04:28;8.50;99.90
73576;DHT22;61859;49.204;8.140;2023-12-14T09:06:54;8.50;99.90
73576;DHT22;61859;49.204;8.140;2023-12-14T09:09:19;8.50;99.90
73576;DHT22;61859;49.204;8.140;2023-12-14T09:11:45;8.60;99.90
73576;DHT22;61859;49.204;8.140;2023-12-14T09:14:10;8.60;99.90
73576;DHT22;61859;49.204;8.140;2023-12-14T09:16:36;8.60;99.90
73576;DHT22;61859;49.204;8.140;2023-12-14T09:19:01;8.70;99.90
73576;DHT22;61859;49.204;8.140;2023-12-14T09:21:27;8.70;99.90
73576;DHT22;61859;49.204;8.140;2023-12-14T09:23:52;8.80;99.90
73576;DHT22;61859;49.204;8.140;2023-12-14T09:26:19;8.70;99.90
73576;DHT22;61859;49.204;8.140;2023-12-14T09:28:44;8.70;99.90
73576;DHT22;61859;49.204;8.140;2023-12-14T09:31:10;8.80;99.90
73576;DHT22;61859;49.204;8.140;2023-12-14T09:33:36;8.70;99.90
73576;DHT22;61859;49.204;8.140;2023-12-14T09:36:02;8.80;99.90
73576;DHT22;61859;49.204;8.140;2023-12-14T09:38:28;8.80;99.90
73576;DHT22;61859;49.204;8.140;2023-12-14T09:40:53;8.80;99.90
73576;DHT22;61859;49.204;8.140;2023-12-14T09:43:19;8.80;99.80
73576;DHT22;61859;49.204;8.140;2023-12-14T09:45:46;8.70;99.60
73576;DHT22;61859;49.204;8.140;2023-12-14T09:48:13;8.70;99.90
73576;DHT22;61859;49.204;8.140;2023-12-14T09:50:40;8.70;99.90
73576;DHT22;61859;49.204;8.140;2023-12-14T09:53:06;8.70;99.90
73576;DHT22;61859;49.204;8.140;2023-12-14T09:55:33;8.60;99.90
73576;DHT22;61859;49.204;8.140;2023-12-14T09:57:58;8.80;99.90
73576;DHT22;61859;49.204;8.140;2023-12-14T10:03:23;8.80;99.90
73576;DHT22;61859;49.204;8.140;2023-12-14T10:05:50;8.90;99.90
73576;DHT22;61859;49.204;8.140;2023-12-14T10:08:16;8.90;99.90
73576;DHT22;61859;49.204;8.140;2023-12-14T10:10:42;9.00;99.90
73576;DHT22;61859;49.204;8.140;2023-12-14T10:13:09;9.00;99.90
73576;DHT22;61859;49.204;8.140;2023-12-14T10:15:45;9.20;99.90
73576;DHT22;61859;49.204;8.140;2023-12-14T10:18:10;9.20;99.90
73576;DHT22;61859;49.204;8.140;2023-12-14T10:20:36;9.30;99.90
73576;DHT22;61859;49.204;8.140;2023-12-14T10:23:07;9.30;99.90
73576;DHT22;61859;49.204;8.140;2023-12-14T10:25:33;9.50;99.90
73576;DHT22;61859;49.204;8.140;2023-12-14T10:27:58;9.60;99.50
73576;DHT22;61859;49.204;8.140;2023-12-14T10:30:26;9.60;98.50
73576;DHT22;61859;49.204;8.140;2023-12-14T10:32:53;9.80;98.50
73576;DHT22;61859;49.204;8.140;2023-12-14T10:35:19;9.80;98.20
73576;DHT22;61859;49.204;8.140;2023-12-14T10:37:50;9.90;98.30
73576;DHT22;61859;49.204;8.140;2023-12-14T10:40:16;9.90;98.00
73576;DHT22;61859;49.204;8.140;2023-12-14T10:42:43;9.80;97.50
73576;DHT22;61859;49.204;8.140;2023-12-14T10:45:13;9.90;97.30
73576;DHT22;61859;49.204;8.140;2023-12-14T10:47:45;9.90;97.60
73576;DHT22;61859;49.204;8.140;2023-12-14T10:50:12;9.90;97.60
73576;DHT22;61859;49.204;8.140;2023-12-14T10:52:39;9.80;97.10
73576;DHT22;61859;49.204;8.140;2023-12-14T10:55:28;9.80;96.60
73576;DHT22;61859;49.204;8.140;2023-12-14T10:57:57;9.90;96.80
73576;DHT22;61859;49.204;8.140;2023-12-14T11:00:23;9.90;95.90
73576;DHT22;61859;49.204;8.140;2023-12-14T11:02:49;9.80;95.80
73576;DHT22;61859;49.204;8.140;2023-12-14T11:05:16;9.90;96.40
73576;DHT22;61859;49.204;8.140;2023-12-14T11:10:39;9.80;95.30
73576;DHT22;61859;49.204;8.140;2023-12-14T11:13:09;9.80;95.90
73576;DHT22;61859;49.204;8.140;2023-12-14T11:15:36;9.80;95.30
73576;DHT22;61859;49.204;8.140;2023-12-14T11:23:16;9.70;96.40
73576;DHT22;61859;49.204;8.140;2023-12-14T11:25:43;9.60;96.40
73576;DHT22;61859;49.204;8.140;2023-12-14T11:28:09;9.60;97.10
73576;DHT22;61859;49.204;8.140;2023-12-14T11:30:36;9.40;97.20
73576;DHT22;61859;49.204;8.140;2023-12-14T11:33:02;9.30;97.40
73576;DHT22;61859;49.204;8.140;2023-12-14T11:35:28;9.30;97.60
73576;DHT22;61859;49.204;8.140;2023-12-14T11:37:54;9.30;97.50
73576;DHT22;61859;49.204;8.140;2023-12-14T11:40:22;9.20;97.50
73576;DHT22;61859;49.204;8.140;2023-12-14T11:42:58;9.10;98.00
73576;DHT22;61859;49.204;8.140;2023-12-14T11:45:25;9.10;97.70
73576;DHT22;61859;49.204;8.140;2023-12-14T11:47:51;9.10;98.40
73576;DHT22;61859;49.204;8.140;2023-12-14T11:50:17;9.00;98.40
73576;DHT22;61859;49.204;8.140;2023-12-14T11:52:42;9.00;98.60
73576;DHT22;61859;49.204;8.140;2023-12-14T11:55:10;9.00;98.70
73576;DHT22;61859;49.204;8.140;2023-12-14T11:57:36;9.10;97.90
73576;DHT22;61859;49.204;8.140;2023-12-14T12:00:01;9.10;98.10
73576;DHT22;61859;49.204;8.140;2023-12-14T12:02:28;9.10;97.80
73576;DHT22;61859;49.204;8.140;2023-12-14T12:04:54;9.10;98.00
73576;DHT22;61859;49.204;8.140;2023-12-14T12:07:19;9.20;98.20
73576;DHT22;61859;49.204;8.140;2023-12-14T12:09:45;9.10;98.60
73576;DHT22;61859;49.204;8.140;2023-12-14T12:12:12;9.20;98.40
73576;DHT22;61859;49.204;8.140;2023-12-14T12:14:38;9.20;98.30
73576;DHT22;61859;49.204;8.140;2023-12-14T12:17:04;9.30;98.30
73576;DHT22;61859;49.204;8.140;2023-12-14T12:19:32;9.30;98.40
73576;DHT22;61859;49.204;8.140;2023-12-14T12:21:58;9.40;98.40
73576;DHT22;61859;49.204;8.140;2023-12-14T12:24:23;9.50;98.50
73576;DHT22;61859;49.204;8.140;2023-12-14T12:26:49;9.50;98.30
73576;DHT22;61859;49.204;8.140;2023-12-14T12:29:14;9.70;98.20
73576;DHT22;61859;49.204;8.140;2023-12-14T12:31:40;9.90;96.70
73576;DHT22;61859;49.204;8.140;2023-12-14T12:34:08;10.10;94.90
73576;DHT22;61859;49.204;8.140;2023-12-14T12:36:33;10.20;93.70
73576;DHT22;61859;49.204;8.140;2023-12-14T12:38:59;10.40;93.50
73576;DHT22;61859;49.204;8.140;2023-12-14T12:41:25;10.60;92.10
73576;DHT22;61859;49.204;8.140;2023-12-14T12:43:50;10.80;91.80
73576;DHT22;61859;49.204;8.140;2023-12-14T12:46:16;11.00;91.30
73576;DHT22;61859;49.204;8.140;2023-12-14T12:48:41;11.50;91.40
73576;DHT22;61859;49.204;8.140;2023-12-14T12:51:07;12.00;88.90
73576;DHT22;61859;49.204;8.140;2023-12-14T12:53:32;12.00;86.80
73576;DHT22;61859;49.204;8.140;2023-12-14T12:55:58;12.00;85.30
73576;DHT22;61859;49.204;8.140;2023-12-14T12:58:24;11.80;86.00
73576;DHT22;61859;49.204;8.140;2023-12-14T13:00:49;11.90;86.80
73576;DHT22;61859;49.204;8.140;2023-12-14T13:03:15;12.00;87.30
73576;DHT22;61859;49.204;8.140;2023-12-14T13:05:41;12.00;85.40
73576;DHT22;61859;49.204;8.140;2023-12-14T13:08:07;12.10;85.10
73576;DHT22;61859;49.204;8.140;2023-12-14T13:10:33;11.90;84.60
73576;DHT22;61859;49.204;8.140;2023-12-14T13:12:59;11.80;85.20
73576;DHT22;61859;49.204;8.140;2023-12-14T13:15:24;11.60;84.30
73576;DHT22;61859;49.204;8.140;2023-12-14T13:17:51;11.40;83.90
73576;DHT22;61859;49.204;8.140;2023-12-14T13:20:16;11.20;84.80
73576;DHT22;61859;49.204;8.140;2023-12-14T13:22:43;11.00;85.90
73576;DHT22;61859;49.204;8.140;2023-12-14T13:25:09;11.00;86.20
73576;DHT22;61859;49.204;8.140;2023-12-14T13:27:35;11.00;86.30
73576;DHT22;61859;49.204;8.140;2023-12-14T13:30:02;10.90;86.70
73576;DHT22;61859;49.204;8.140;2023-12-14T13:32:28;10.90;86.30
73576;DHT22;61859;49.204;8.140;2023-12-14T13:34:53;10.90;86.70
73576;DHT22;61859;49.204;8.140;2023-12-14T13:37:19;10.70;87.30
73576;DHT22;61859;49.204;8.140;2023-12-14T13:39:44;10.80;87.00
73576;DHT22;61859;49.204;8.140;2023-12-14T13:42:10;10.70;86.80
73576;DHT22;61859;49.204;8.140;2023-12-14T13:44:36;10.70;87.40
73576;DHT22;61859;49.204;8.140;2023-12-14T13:47:03;10.60;86.90
73576;DHT22;61859;49.204;8.140;2023-12-14T13:49:28;10.60;87.80
73576;DHT22;61859;49.204;8.140;2023-12-14T13:51:54;10.60;88.80
73576;DHT22;61859;49.204;8.140;2023-12-14T13:54:19;10.60;88.70
73576;DHT22;61859;49.204;8.140;2023-12-14T13:56:45;10.50;88.40
73576;DHT22;61859;49.204;8.140;2023-12-14T13:59:10;10.60;88.90
73576;DHT22;61859;49.204;8.140;2023-12-14T14:01:36;10.60;88.80
73576;DHT22;61859;49.204;8.140;2023-12-14T14:04:03;10.60;88.50
73576;DHT22;61859;49.204;8.140;2023-12-14T14:06:28;10.60;88.90
73576;DHT22;61859;49.204;8.140;2023-12-14T14:08:54;10.50;88.70
73576;DHT22;61859;49.204;8.140;2023-12-14T14:11:20;10.40;88.90
73576;DHT22;61859;49.204;8.140;2023-12-14T14:13:46;10.40;89.20
73576;DHT22;61859;49.204;8.140;2023-12-14T14:16:11;10.20;90.30
73576;DHT22;61859;49.204;8.140;2023-12-14T14:18:37;10.00;91.20
73576;DHT22;61859;49.204;8.140;2023-12-14T14:21:03;9.80;91.80
73576;DHT22;61859;49.204;8.140;2023-12-14T14:23:33;9.70;93.10
73576;DHT22;61859;49.204;8.140;2023-12-14T14:25:58;9.50;93.80
73576;DHT22;61859;49.204;8.140;2023-12-14T14:28:24;9.30;95.20
73576;DHT22;61859;49.204;8.140;2023-12-14T14:30:49;9.10;96.70
73576;DHT22;61859;49.204;8.140;2023-12-14T14:33:15;8.80;97.10
73576;DHT22;61859;49.204;8.140;2023-12-14T14:35:47;8.60;97.60
73576;DHT22;61859;49.204;8.140;2023-12-14T14:38:13;8.60;98.00
73576;DHT22;61859;49.204;8.140;2023-12-14T14:40:39;8.50;98.40
73576;DHT22;61859;49.204;8.140;2023-12-14T14:43:05;8.50;99.00
73576;DHT22;61859;49.204;8.140;2023-12-14T14:45:31;8.30;99.30
73576;DHT22;61859;49.204;8.140;2023-12-14T14:47:56;8.30;99.90
73576;DHT22;61859;49.204;8.140;2023-12-14T14:50:22;8.20;99.90
73576;DHT22;61859;49.204;8.140;2023-12-14T14:52:47;8.20;99.90
73576;DHT22;61859;49.204;8.140;2023-12-14T14:55:14;8.20;99.90
73576;DHT22;61859;49.204;8.140;2023-12-14T14:57:40;8.20;99.90
73576;DHT22;61859;49.204;8.140;2023-12-14T15:00:06;8.20;99.90
73576;DHT22;61859;49.204;8.140;2023-12-14T15:02:32;8.10;99.90
73576;DHT22;61859;49.204;8.140;2023-12-14T15:04:58;8.20;99.90
73576;DHT22;61859;49.204;8.140;2023-12-14T15:07:24;8.10;99.90
73576;DHT22;61859;49.204;8.140;2023-12-14T15:09:49;8.00;99.90
73576;DHT22;61859;49.204;8.140;2023-12-14T15:12:15;8.00;99.90
73576;DHT22;61859;49.204;8.140;2023-12-14T15:14:40;8.00;99.90
73576;DHT22;61859;49.204;8.140;2023-12-14T15:17:06;7.90;99.90
73576;DHT22;61859;49.204;8.140;2023-12-14T15:19:31;7.90;99.90
73576;DHT22;61859;49.204;8.140;2023-12-14T15:21:57;7.80;99.90
73576;DHT22;61859;49.204;8.140;2023-12-14T15:24:23;7.70;99.90
73576;DHT22;61859;49.204;8.140;2023-12-14T15:26:48;7.90;99.90
73576;DHT22;61859;49.204;8.140;2023-12-14T15:29:14;7.80;99.90
73576;DHT22;61859;49.204;8.140;2023-12-14T15:31:40;7.80;99.90
73576;DHT22;61859;49.204;8.140;2023-12-14T15:34:06;7.70;99.90
73576;DHT22;61859;49.204;8.140;2023-12-14T15:36:34;7.70;99.90
73576;DHT22;61859;49.204;8.140;2023-12-14T15:39:00;7.80;99.90
73576;DHT22;61859;49.204;8.140;2023-12-14T15:41:26;7.80;99.90
73576;DHT22;61859;49.204;8.140;2023-12-14T15:43:52;7.80;99.90
73576;DHT22;61859;49.204;8.140;2023-12-14T15:46:18;7.90;99.90
73576;DHT22;61859;49.204;8.140;2023-12-14T15:48:43;7.70;99.90
73576;DHT22;61859;49.204;8.140;2023-12-14T15:51:10;7.80;99.90